Time;durP1;ratioP1;P1;durP2;ratioP2;P2;SDS_P1;SDS_P2;PMS_P1;PMS_P2;Temp;Humidity;BMP_temperature;BMP_pressure;BME280_temperature;BME280_humidity;BME280_pressure;Samples;Min_cycle;Max_cycle;Signal;HPM_P1;HPM_P2
2023/04/07 00:00:35;;;;;;;77.70;41.70;;;;;;;0.69;100.00;100766.54;109437;1245;70338;-78
2023/04/07 00:03:17;;;;;;;83.60;44.80;;;;;;;0.66;100.00;100763.02;109486;1248;63104;-78
2023/04/07 00:05:47;;;;;;;135.00;66.10;;;;;;;0.65;100.00;100763.05;109570;1251;60442;-78
2023/04/07 00:08:15;;;;;;;95.20;48.90;;;;;;;0.66;100.00;100763.39;109572;1247;60872;-78
2023/04/07 00:10:44;;;;;;;87.70;46.30;;;;;;;0.66;100.00;100764.73;109622;1248;73051;-78
2023/04/07 00:13:13;;;;;;;73.60;39.00;;;;;;;0.66;100.00;100764.58;109900;1248;70276;-79
2023/04/07 00:15:42;;;;;;;78.40;39.70;;;;;;;0.66;100.00;100768.88;109702;1246;70528;-78
2023/04/07 00:18:11;;;;;;;81.30;42.70;;;;;;;0.66;100.00;100766.27;109684;1247;74124;-78
2023/04/07 00:20:40;;;;;;;73.50;39.60;;;;;;;0.64;100.00;100766.86;109689;1247;61547;-78
2023/04/07 00:23:08;;;;;;;77.70;40.10;;;;;;;0.64;100.00;100768.59;109719;1247;61100;-78
2023/04/07 00:25:37;;;;;;;71.50;36.80;;;;;;;0.61;100.00;100768.30;109380;1246;73393;-79
2023/04/07 00:28:06;;;;;;;68.60;37.10;;;;;;;0.59;100.00;100763.59;109567;1247;69493;-79
2023/04/07 00:30:35;;;;;;;74.10;38.20;;;;;;;0.58;100.00;100765.69;109497;1248;70458;-77
2023/04/07 00:33:03;;;;;;;74.90;37.90;;;;;;;0.57;100.00;100764.16;109611;1246;73998;-81
2023/04/07 00:35:37;;;;;;;67.40;35.60;;;;;;;0.58;100.00;100760.05;109543;1249;61575;-80
2023/04/07 00:38:06;;;;;;;86.40;39.20;;;;;;;0.58;100.00;100754.38;109613;1246;60381;-81
2023/04/07 00:40:35;;;;;;;85.20;43.00;;;;;;;0.56;100.00;100750.16;109688;1247;74750;-78
2023/04/07 00:43:04;;;;;;;74.10;38.90;;;;;;;0.50;100.00;100753.76;109461;1246;70968;-81
2023/04/07 00:45:36;;;;;;;69.30;37.30;;;;;;;0.39;100.00;100755.79;109553;1249;68299;-78
2023/04/07 00:48:05;;;;;;;77.60;38.40;;;;;;;0.37;100.00;100759.11;109448;1246;72360;-81
2023/04/07 00:50:34;;;;;;;77.20;39.80;;;;;;;0.33;100.00;100761.46;109445;1251;58855;-81
2023/04/07 00:53:04;;;;;;;70.90;37.50;;;;;;;0.28;100.00;100761.08;109573;1248;57804;-80
2023/04/07 00:55:33;;;;;;;73.60;37.80;;;;;;;0.27;100.00;100766.09;109457;1251;71692;-80
2023/04/07 00:58:03;;;;;;;72.90;37.00;;;;;;;0.25;100.00;100763.73;109731;1248;69959;-80
2023/04/07 01:00:41;;;;;;;79.10;38.40;;;;;;;0.24;100.00;100765.64;109592;1245;69960;-79
2023/04/07 01:03:20;;;;;;;71.50;37.60;;;;;;;0.23;100.00;100764.48;109467;1248;73057;-80
2023/04/07 01:06:00;;;;;;;78.10;39.70;;;;;;;0.21;100.00;100764.34;109402;1251;57789;-80
2023/04/07 01:08:50;;;;;;;73.50;38.30;;;;;;;0.20;100.00;100767.65;109600;1248;61203;-81
2023/04/07 01:11:24;;;;;;;72.00;36.00;;;;;;;0.16;100.00;100771.00;109682;1247;72820;-81
2023/04/07 01:13:57;;;;;;;73.70;37.30;;;;;;;0.17;100.00;100770.30;109424;1251;69555;-77
2023/04/07 01:16:47;;;;;;;77.20;39.90;;;;;;;0.19;100.00;100771.61;109344;1247;69651;-79
2023/04/07 01:19:33;;;;;;;78.70;39.70;;;;;;;0.22;100.00;100771.02;109180;1248;72842;-77
2023/04/07 01:22:16;;;;;;;89.30;43.20;;;;;;;0.25;100.00;100774.02;109295;1246;61293;-77
2023/04/07 01:25:02;;;;;;;90.80;43.80;;;;;;;0.29;100.00;100772.70;109301;1247;61017;-79
2023/04/07 01:27:57;;;;;;;83.10;39.10;;;;;;;0.33;100.00;100771.56;109310;1246;72822;-79
2023/04/07 01:30:37;;;;;;;146.00;67.10;;;;;;;0.37;100.00;100771.26;109146;1248;72206;-78
2023/04/07 01:33:07;;;;;;;123.80;58.40;;;;;;;0.43;100.00;100773.67;109264;1246;70924;-78
2023/04/07 01:35:38;;;;;;;99.20;50.00;;;;;;;0.47;100.00;100772.34;109251;1248;73441;-79
2023/04/07 01:38:10;;;;;;;80.30;40.70;;;;;;;0.50;100.00;100772.76;109525;1247;61817;-79
2023/04/07 01:40:39;;;;;;;76.60;40.00;;;;;;;0.52;100.00;100774.23;109590;1246;60931;-77
2023/04/07 01:43:10;;;;;;;81.50;39.80;;;;;;;0.55;100.00;100771.42;109332;1251;71950;-80
2023/04/07 01:45:40;;;;;;;89.50;45.10;;;;;;;0.54;100.00;100770.77;109160;1248;71357;-76
2023/04/07 01:48:10;;;;;;;79.40;42.50;;;;;;;0.49;100.00;100771.08;109408;1251;68251;-79
2023/04/07 01:50:40;;;;;;;80.90;45.00;;;;;;;0.48;100.00;100774.89;109445;1247;73088;-77
2023/04/07 01:53:10;;;;;;;79.70;42.20;;;;;;;0.41;100.00;100779.71;109377;1251;62053;-78
2023/04/07 01:55:38;;;;;;;75.60;39.70;;;;;;;0.39;100.00;100782.17;109293;1248;61658;-78
2023/04/07 01:58:09;;;;;;;76.90;40.40;;;;;;;0.41;100.00;100782.81;109281;1251;72100;-78
2023/04/07 02:00:42;;;;;;;84.90;42.50;;;;;;;0.42;100.00;100782.77;109383;1251;69521;-78
2023/04/07 02:03:32;;;;;;;83.30;42.80;;;;;;;0.44;100.00;100782.55;109463;1247;68783;-79
2023/04/07 02:06:06;;;;;;;84.50;43.80;;;;;;;0.45;100.00;100783.20;109476;1246;65072;-78
2023/04/07 02:08:40;;;;;;;80.40;41.70;;;;;;;0.46;100.00;100778.36;109308;1251;61795;-79
2023/04/07 02:11:11;;;;;;;78.80;41.40;;;;;;;0.46;100.00;100777.17;109319;1251;61498;-80
2023/04/07 02:13:43;;;;;;;85.30;42.00;;;;;;;0.43;100.00;100777.95;109248;1247;73361;-78
2023/04/07 02:16:12;;;;;;;91.60;44.70;;;;;;;0.39;100.00;100776.69;109209;1247;71465;-80
2023/04/07 02:18:45;;;;;;;89.60;45.00;;;;;;;0.36;100.00;100777.46;109215;1247;70274;-79
2023/04/07 02:21:15;;;;;;;77.00;39.90;;;;;;;0.34;100.00;100781.29;109293;1251;71643;-80
2023/04/07 02:23:46;;;;;;;84.10;41.20;;;;;;;0.33;100.00;100784.58;109176;1247;61320;-80
2023/04/07 02:26:15;;;;;;;81.50;40.90;;;;;;;0.35;100.00;100781.29;109376;1247;61222;-81
2023/04/07 02:28:44;;;;;;;83.20;41.00;;;;;;;0.36;100.00;100790.83;109599;1247;74307;-81
2023/04/07 02:31:12;;;;;;;85.70;38.90;;;;;;;0.39;100.00;100790.05;109535;1247;72669;-81
2023/04/07 02:33:41;;;;;;;88.20;40.90;;;;;;;0.43;100.00;100787.89;109392;1247;69077;-78
2023/04/07 02:36:10;;;;;;;82.10;38.50;;;;;;;0.48;100.00;100791.86;109394;1251;72357;-80
2023/04/07 02:38:39;;;;;;;87.00;39.50;;;;;;;0.51;100.00;100794.16;109520;1247;62070;-81
2023/04/07 02:41:07;;;;;;;87.50;39.80;;;;;;;0.52;100.00;100797.57;109579;1248;59992;-80
2023/04/07 02:43:36;;;;;;;84.60;39.20;;;;;;;0.53;100.00;100799.41;109610;1248;72357;-77
2023/04/07 02:46:05;;;;;;;84.00;40.70;;;;;;;0.53;100.00;100801.29;109543;1252;68532;-77
2023/04/07 02:48:34;;;;;;;84.30;38.30;;;;;;;0.60;100.00;100807.61;109451;1251;67863;-77
2023/04/07 02:51:03;;;;;;;83.80;38.00;;;;;;;0.62;100.00;100802.06;109541;1252;73125;-78
2023/04/07 02:53:32;;;;;;;80.00;37.60;;;;;;;0.68;100.00;100802.23;109523;1251;60881;-80
2023/04/07 02:56:01;;;;;;;86.30;39.10;;;;;;;0.73;100.00;100808.06;109538;1248;60289;-79
2023/04/07 02:58:30;;;;;;;124.20;61.30;;;;;;;0.72;100.00;100813.60;109387;1248;73380;-79
2023/04/07 03:00:58;;;;;;;102.40;50.50;;;;;;;0.69;100.00;100815.58;109507;1248;72573;-77
2023/04/07 03:03:30;;;;;;;87.20;40.40;;;;;;;0.72;100.00;100816.50;109822;1248;69202;-78
2023/04/07 03:06:15;;;;;;;90.00;42.20;;;;;;;0.74;100.00;100818.33;109443;1251;72576;-79
2023/04/07 03:08:57;;;;;;;79.70;41.70;;;;;;;0.72;100.00;100813.59;109467;1251;58169;-77
2023/04/07 03:11:26;;;;;;;85.00;40.60;;;;;;;0.73;100.00;100814.08;109461;1248;60357;-79
2023/04/07 03:13:55;;;;;;;83.60;42.30;;;;;;;0.73;100.00;100817.00;109603;1251;72352;-78
2023/04/07 03:16:25;;;;;;;87.00;42.90;;;;;;;0.73;100.00;100818.19;109627;1247;72200;-78
2023/04/07 03:19:11;;;;;;;117.60;68.10;;;;;;;0.70;100.00;100822.06;109706;1249;68365;-79
2023/04/07 03:21:45;;;;;;;113.80;62.70;;;;;;;0.69;100.00;100824.14;109569;1245;72462;-78
2023/04/07 03:24:14;;;;;;;93.00;45.50;;;;;;;0.72;100.00;100821.98;109558;1252;60260;-80
2023/04/07 03:26:43;;;;;;;92.50;45.30;;;;;;;0.70;100.00;100824.47;109572;1251;58222;-78
2023/04/07 03:29:18;;;;;;;95.20;42.60;;;;;;;0.69;100.00;100828.09;109452;1251;73606;-78
2023/04/07 03:31:47;;;;;;;91.90;42.90;;;;;;;0.69;100.00;100827.04;109556;1250;72828;-81
2023/04/07 03:34:17;;;;;;;94.40;45.90;;;;;;;0.71;100.00;100827.01;109580;1251;68310;-79
2023/04/07 03:36:47;;;;;;;99.40;45.70;;;;;;;0.71;100.00;100828.88;109552;1248;71840;-77
2023/04/07 03:39:16;;;;;;;95.90;43.60;;;;;;;0.70;100.00;100831.30;109607;1252;61133;-78
2023/04/07 03:41:46;;;;;;;100.10;45.20;;;;;;;0.69;100.00;100835.10;109609;1248;60046;-78
2023/04/07 03:44:17;;;;;;;94.40;44.50;;;;;;;0.75;100.00;100838.02;109562;1249;71614;-79
2023/04/07 03:46:47;;;;;;;89.50;43.80;;;;;;;0.82;100.00;100840.23;109536;1248;71560;-78
2023/04/07 03:49:17;;;;;;;95.20;45.10;;;;;;;0.82;100.00;100842.09;109588;1248;70225;-79
2023/04/07 03:51:45;;;;;;;88.10;44.00;;;;;;;0.83;100.00;100849.95;109620;1246;73641;-79
2023/04/07 03:54:15;;;;;;;105.60;49.40;;;;;;;0.87;100.00;100854.80;109602;1250;61819;-79
2023/04/07 03:56:45;;;;;;;98.90;45.90;;;;;;;0.89;100.00;100857.67;109497;1248;61460;-79
2023/04/07 03:59:17;;;;;;;88.20;44.10;;;;;;;0.92;100.00;100859.27;109488;1246;72347;-80
2023/04/07 04:01:53;;;;;;;94.60;42.50;;;;;;;0.95;100.00;100866.05;109521;1248;72092;-79
2023/04/07 04:04:23;;;;;;;100.30;44.90;;;;;;;0.98;100.00;100868.04;109523;1248;69968;-79
2023/04/07 04:06:52;;;;;;;101.40;45.70;;;;;;;1.02;100.00;100875.80;109633;1248;71955;-77
2023/04/07 04:09:34;;;;;;;100.50;42.60;;;;;;;1.05;100.00;100874.50;109471;1251;57729;-77
2023/04/07 04:12:05;;;;;;;97.80;41.30;;;;;;;1.02;100.00;100880.58;109516;1250;61241;-77
2023/04/07 04:14:35;;;;;;;94.80;41.80;;;;;;;0.96;100.00;100881.45;109426;1246;75457;-78
2023/04/07 04:17:04;;;;;;;99.70;44.90;;;;;;;0.95;100.00;100886.48;109453;1251;71993;-77
2023/04/07 04:19:40;;;;;;;92.60;42.60;;;;;;;0.97;100.00;100891.02;109438;1248;69578;-78
2023/04/07 04:22:22;;;;;;;111.10;45.60;;;;;;;1.00;100.00;100894.20;109420;1251;72840;-78
2023/04/07 04:24:54;;;;;;;105.40;44.90;;;;;;;1.03;100.00;100900.64;109318;1252;61172;-79
2023/04/07 04:27:23;;;;;;;94.70;44.50;;;;;;;1.02;100.00;100906.67;109440;1247;60669;-78
2023/04/07 04:29:56;;;;;;;87.60;42.00;;;;;;;0.99;100.00;100909.66;109518;1248;73952;-75
2023/04/07 04:32:34;;;;;;;97.00;42.90;;;;;;;0.96;100.00;100908.55;109554;1251;62343;-76
2023/04/07 04:35:05;;;;;;;93.90;41.00;;;;;;;1.03;100.00;100910.75;109313;1248;69073;-76
2023/04/07 04:37:36;;;;;;;92.50;43.10;;;;;;;1.13;100.00;100909.24;109392;1248;74496;-76
2023/04/07 04:40:07;;;;;;;93.70;42.10;;;;;;;1.14;100.00;100907.33;109429;1246;60054;-78
2023/04/07 04:42:36;;;;;;;103.20;44.00;;;;;;;1.19;100.00;100905.83;109592;1248;59345;-76
2023/04/07 04:45:06;;;;;;;94.70;41.60;;;;;;;1.28;100.00;100903.98;109431;1248;74350;-79
2023/04/07 04:47:37;;;;;;;96.40;43.10;;;;;;;1.27;100.00;100908.48;109583;1248;73263;-79
2023/04/07 04:50:07;;;;;;;96.50;43.70;;;;;;;1.28;100.00;100912.38;109469;1247;70279;-76
2023/04/07 04:52:38;;;;;;;101.20;44.50;;;;;;;1.38;100.00;100912.27;109245;1246;74307;-75
2023/04/07 04:55:08;;;;;;;96.20;43.70;;;;;;;1.50;100.00;100915.13;109500;1248;60334;-76
2023/04/07 04:57:38;;;;;;;100.80;45.40;;;;;;;1.59;100.00;100915.02;109559;1247;60649;-77
2023/04/07 05:00:09;;;;;;;100.80;44.30;;;;;;;1.62;100.00;100920.94;109483;1248;72752;-80
2023/04/07 05:02:39;;;;;;;103.00;44.00;;;;;;;1.67;100.00;100927.14;109523;1248;69931;-75
2023/04/07 05:05:08;;;;;;;122.50;50.90;;;;;;;1.75;100.00;100934.43;109531;1248;68659;-79
2023/04/07 05:07:39;;;;;;;110.10;47.10;;;;;;;1.77;100.00;100941.23;109362;1251;73070;-80
2023/04/07 05:10:08;;;;;;;116.10;49.60;;;;;;;1.77;100.00;100941.94;109445;1248;60130;-84
2023/04/07 05:12:40;;;;;;;101.20;45.20;;;;;;;1.76;100.00;100945.05;109283;1251;58717;-76
2023/04/07 05:15:09;;;;;;;109.90;46.50;;;;;;;1.71;100.00;100947.61;109455;1250;73739;-80
2023/04/07 05:17:38;;;;;;;93.90;47.30;;;;;;;1.68;100.00;100946.70;109503;1248;71606;-80
2023/04/07 05:20:10;;;;;;;98.30;43.80;;;;;;;1.81;100.00;100952.43;109163;1248;70548;-78
2023/04/07 05:22:40;;;;;;;99.40;45.30;;;;;;;2.03;100.00;100952.23;109186;1251;72339;-77
2023/04/07 05:25:11;;;;;;;93.60;43.80;;;;;;;2.12;100.00;100950.92;109309;1248;61737;-80
2023/04/07 05:27:40;;;;;;;93.60;44.50;;;;;;;2.18;100.00;100957.23;109218;1247;60100;-78
2023/04/07 05:30:14;;;;;;;90.50;44.50;;;;;;;2.19;100.00;100958.58;109260;1247;72386;-79
2023/04/07 05:32:43;;;;;;;91.10;44.20;;;;;;;2.29;100.00;100960.11;109421;1247;70246;-77
2023/04/07 05:35:19;;;;;;;97.80;46.20;;;;;;;2.25;100.00;100959.58;109497;1247;69611;-80
2023/04/07 05:37:52;;;;;;;94.40;46.30;;;;;;;2.41;100.00;100959.36;109477;1248;73839;-77
2023/04/07 05:40:20;;;;;;;105.40;50.80;;;;;;;2.52;100.00;100961.05;109450;1247;62270;-76
2023/04/07 05:42:50;;;;;;;104.70;51.10;;;;;;;2.66;100.00;100957.13;109296;1246;60290;-79
2023/04/07 05:45:19;;;;;;;103.40;50.30;;;;;;;2.74;100.00;100956.34;109289;1247;74378;-77
2023/04/07 05:47:49;;;;;;;86.60;47.70;;;;;;;2.85;100.00;100960.23;109302;1247;70309;-77
2023/04/07 05:50:22;;;;;;;92.50;47.90;;;;;;;2.80;100.00;100962.45;109432;1247;68519;-80
2023/04/07 05:52:51;;;;;;;93.30;48.20;;;;;;;2.80;100.00;100969.33;109488;1248;71190;-78
2023/04/07 05:55:23;;;;;;;97.40;50.30;;;;;;;3.17;100.00;100971.08;109483;1251;59738;-78
2023/04/07 05:57:52;;;;;;;88.20;47.90;;;;;;;3.34;100.00;100974.39;109349;1247;59643;-74
2023/04/07 06:00:22;;;;;;;90.40;47.40;;;;;;;3.26;100.00;100976.76;109088;1248;358623;-74
2023/04/07 06:02:58;;;;;;;92.10;49.70;;;;;;;3.29;100.00;100977.67;109425;1250;72291;-75
2023/04/07 06:05:28;;;;;;;97.20;48.50;;;;;;;3.36;100.00;100982.43;109403;1248;68607;-74
2023/04/07 06:07:57;;;;;;;85.80;46.50;;;;;;;3.37;100.00;100983.91;109239;1251;71767;-74
2023/04/07 06:10:27;;;;;;;92.40;48.50;;;;;;;3.34;100.00;100986.46;109413;1248;62104;-73
2023/04/07 06:12:55;;;;;;;91.10;49.20;;;;;;;3.68;100.00;100978.58;109412;1248;61168;-74
2023/04/07 06:15:24;;;;;;;82.70;46.20;;;;;;;3.83;100.00;100979.70;109541;1247;72385;-74
2023/04/07 06:17:53;;;;;;;86.30;46.80;;;;;;;4.12;100.00;100988.17;109127;1252;72283;-73
2023/04/07 06:20:21;;;;;;;86.60;44.80;;;;;;;4.12;100.00;100987.48;109398;1247;70372;-73
2023/04/07 06:22:51;;;;;;;84.80;47.30;;;;;;;4.24;100.00;100993.73;109366;1248;72791;-74
2023/04/07 06:25:20;;;;;;;79.50;43.50;;;;;;;4.35;100.00;100995.16;109585;1247;61196;-73
2023/04/07 06:27:49;;;;;;;74.90;42.70;;;;;;;4.27;100.00;100996.88;109410;1247;58243;-72
2023/04/07 06:30:18;;;;;;;65.20;38.70;;;;;;;4.19;100.00;100997.21;109598;1247;63948;-72
2023/04/07 06:32:47;;;;;;;72.20;43.90;;;;;;;4.33;100.00;100994.56;109467;1247;71596;-72
2023/04/07 06:35:16;;;;;;;63.10;37.20;;;;;;;4.25;100.00;100996.08;109539;1247;60988;-74
2023/04/07 06:37:45;;;;;;;62.50;37.50;;;;;;;4.16;100.00;101000.23;109468;1248;62516;-73
2023/04/07 06:40:14;;;;;;;66.70;36.40;;;;;;;3.81;100.00;101002.19;109599;1248;58260;-72
2023/04/07 06:42:43;;;;;;;69.60;38.50;;;;;;;3.88;100.00;101003.45;109600;1248;57773;-72
2023/04/07 06:45:52;;;;;;;65.40;36.80;;;;;;;3.83;100.00;101007.64;109378;1246;64776;-72
2023/04/07 06:48:22;;;;;;;68.80;38.50;;;;;;;3.82;100.00;101008.02;109307;1247;71359;-71
2023/04/07 06:50:51;;;;;;;57.70;35.70;;;;;;;3.96;100.00;101006.09;109330;1248;71064;-73
2023/04/07 06:53:20;;;;;;;52.50;33.10;;;;;;;3.83;100.00;101001.08;109531;1247;62637;-72
2023/04/07 06:55:49;;;;;;;55.60;34.90;;;;;;;3.89;100.00;101003.95;109469;1246;57735;-72
2023/04/07 06:58:19;;;;;;;56.00;36.00;;;;;;;3.86;100.00;101007.67;109500;1246;60400;-71
2023/04/07 07:00:48;;;;;;;52.90;32.70;;;;;;;3.89;100.00;101016.02;109335;1247;73436;-72
2023/04/07 07:03:16;;;;;;;57.80;34.60;;;;;;;3.98;100.00;101020.29;109471;1244;72082;-73
2023/04/07 07:05:46;;;;;;;57.60;35.20;;;;;;;3.99;100.00;101023.88;109598;1247;71679;-74
2023/04/07 07:08:17;;;;;;;58.40;32.80;;;;;;;3.92;100.00;101028.30;109592;1245;63431;-76
2023/04/07 07:10:46;;;;;;;48.50;32.40;;;;;;;3.97;100.00;101028.60;109383;1248;58202;-73
2023/04/07 07:13:15;;;;;;;47.90;31.20;;;;;;;3.93;100.00;101030.32;109240;1247;61273;-72
2023/04/07 07:15:44;;;;;;;48.80;31.40;;;;;;;3.99;100.00;101036.98;109283;1247;74232;-73
2023/04/07 07:18:14;;;;;;;50.90;31.50;;;;;;;4.09;100.00;101040.56;109354;1244;73338;-72
2023/04/07 07:20:44;;;;;;;47.00;31.20;;;;;;;4.35;100.00;101044.30;109385;1244;70186;-73
2023/04/07 07:23:13;;;;;;;55.00;34.10;;;;;;;4.47;100.00;101041.39;109392;1248;73874;-71
2023/04/07 07:25:42;;;;;;;48.50;32.80;;;;;;;4.59;100.00;101043.64;109490;1251;62739;-72
2023/04/07 07:28:10;;;;;;;44.50;30.60;;;;;;;4.34;100.00;101044.52;109538;1247;61431;-72
2023/04/07 07:30:40;;;;;;;49.40;32.80;;;;;;;4.48;100.00;101045.46;109727;1244;74284;-72
2023/04/07 07:33:09;;;;;;;50.30;33.10;;;;;;;4.63;100.00;101046.41;109651;1245;71288;-76
2023/04/07 07:35:39;;;;;;;52.10;34.00;;;;;;;4.77;99.93;101049.30;109506;1246;70965;-73
2023/04/07 07:38:08;;;;;;;66.40;40.40;;;;;;;4.92;99.94;101049.32;109669;1245;71554;-72
2023/04/07 07:40:37;;;;;;;51.10;34.90;;;;;;;5.49;99.88;101051.27;109671;1246;62137;-72
2023/04/07 07:43:06;;;;;;;48.90;33.50;;;;;;;5.26;97.36;101047.27;109689;1244;61585;-73
2023/04/07 07:45:34;;;;;;;51.30;34.90;;;;;;;4.97;98.45;101060.32;109514;1244;74382;-72
2023/04/07 07:48:03;;;;;;;50.70;34.70;;;;;;;5.07;99.66;101060.56;109580;1247;61332;-72
2023/04/07 07:50:32;;;;;;;50.50;32.70;;;;;;;5.24;99.21;101060.02;109591;1251;59973;-73
2023/04/07 07:53:01;;;;;;;50.40;33.90;;;;;;;5.47;98.95;101058.77;109583;1245;73948;-74
2023/04/07 07:55:30;;;;;;;48.30;33.50;;;;;;;5.44;98.52;101063.23;109551;1248;62838;-73
2023/04/07 07:57:59;;;;;;;50.70;32.40;;;;;;;5.64;97.63;101065.80;109682;1246;61105;-72
2023/04/07 08:00:27;;;;;;;48.40;33.20;;;;;;;6.02;97.48;101071.10;109506;1246;73446;-74
2023/04/07 08:02:56;;;;;;;42.70;32.10;;;;;;;6.20;95.81;101073.89;109569;1244;72005;-72
2023/04/07 08:05:25;;;;;;;43.90;31.50;;;;;;;6.19;97.04;101079.30;109678;1244;70424;-73
2023/04/07 08:07:55;;;;;;;43.80;29.00;;;;;;;6.05;95.83;101085.51;109666;1245;62776;-74
2023/04/07 08:10:24;;;;;;;37.40;27.60;;;;;;;6.04;94.46;101082.92;109538;1246;61360;-73
2023/04/07 08:12:53;;;;;;;38.10;26.40;;;;;;;6.10;95.93;101084.90;109708;1244;61241;-72
2023/04/07 08:15:21;;;;;;;34.50;23.10;;;;;;;6.10;95.40;101086.30;109520;1244;74809;-71
2023/04/07 08:17:50;;;;;;;36.60;24.70;;;;;;;6.07;94.69;101088.49;109662;1246;61291;-71
2023/04/07 08:20:22;;;;;;;33.30;23.20;;;;;;;6.22;93.46;101086.25;109724;1244;70248;-71
2023/04/07 08:22:51;;;;;;;34.40;23.60;;;;;;;6.24;94.80;101088.40;109532;1246;64361;-72
2023/04/07 08:25:20;;;;;;;37.50;25.60;;;;;;;6.14;94.05;101088.71;109543;1247;58175;-71
2023/04/07 08:27:49;;;;;;;31.20;21.70;;;;;;;6.15;93.98;101089.69;109676;1247;57679;-72
2023/04/07 08:30:19;;;;;;;33.90;23.40;;;;;;;6.08;93.38;101094.16;109637;1244;73280;-71
2023/04/07 08:32:48;;;;;;;33.10;23.20;;;;;;;5.86;95.58;101095.90;109582;1247;63381;-71
2023/04/07 08:35:17;;;;;;;29.90;22.50;;;;;;;5.96;94.56;101093.67;109606;1244;60507;-76
2023/04/07 08:37:46;;;;;;;34.90;23.80;;;;;;;6.09;93.75;101092.58;109635;1248;73490;-71
2023/04/07 08:40:15;;;;;;;30.80;22.00;;;;;;;6.33;92.23;101093.86;109568;1247;61574;-71
2023/04/07 08:42:48;;;;;;;27.60;20.70;;;;;;;6.29;92.83;101090.36;109632;1247;59910;-71
2023/04/07 08:45:18;;;;;;;27.50;20.70;;;;;;;6.60;93.10;101089.20;109649;1246;75063;-72
2023/04/07 08:47:52;;;;;;;27.00;20.80;;;;;;;6.42;92.39;101091.67;109381;1244;72759;-72
2023/04/07 08:50:27;;;;;;;28.50;21.50;;;;;;;6.48;92.07;101088.45;109547;1247;69710;-71
2023/04/07 08:52:59;;;;;;;28.60;20.50;;;;;;;6.93;89.45;101088.25;109675;1244;73442;-72
2023/04/07 08:55:28;;;;;;;28.10;21.30;;;;;;;7.01;89.02;101083.33;109548;1249;60530;-70
2023/04/07 08:57:57;;;;;;;26.30;17.10;;;;;;;7.33;86.36;101091.52;109549;1248;59045;-71
2023/04/07 09:00:30;;;;;;;18.60;14.60;;;;;;;7.26;86.08;101094.17;109508;1251;70994;-72
2023/04/07 09:03:00;;;;;;;17.40;13.20;;;;;;;7.19;85.61;101095.71;109443;1248;70540;-73
2023/04/07 09:05:30;;;;;;;17.80;14.00;;;;;;;7.40;84.75;101097.20;109493;1247;69381;-72
2023/04/07 09:07:58;;;;;;;15.40;12.30;;;;;;;7.22;84.70;101098.19;109475;1247;74144;-72
2023/04/07 09:10:27;;;;;;;25.20;17.90;;;;;;;7.02;86.25;101101.81;109405;1252;57901;-71
2023/04/07 09:12:58;;;;;;;18.50;12.70;;;;;;;7.02;86.93;101104.45;109490;1249;58262;-71
2023/04/07 09:15:30;;;;;;;14.80;12.10;;;;;;;7.05;86.28;101105.99;109380;1251;63015;-71
2023/04/07 09:17:59;;;;;;;16.70;13.20;;;;;;;7.45;84.39;101112.21;109143;1247;62788;-70
2023/04/07 09:20:56;;;;;;;18.30;14.40;;;;;;;7.51;84.89;101112.95;109341;1247;69669;-70
2023/04/07 09:23:35;;;;;;;17.50;13.00;;;;;;;7.50;84.91;101118.00;109280;1247;73509;-71
2023/04/07 09:26:27;;;;;;;16.10;12.90;;;;;;;7.18;84.81;101119.18;109217;1246;63131;-71
2023/04/07 09:29:02;;;;;;;14.60;12.10;;;;;;;6.95;86.73;101122.92;109420;1247;60798;-72
2023/04/07 09:31:49;;;;;;;16.80;13.30;;;;;;;6.77;87.64;101122.84;109123;1251;74334;-70
2023/04/07 09:34:29;;;;;;;16.30;13.70;;;;;;;6.80;87.07;101128.90;109430;1246;73020;-71
2023/04/07 09:36:58;;;;;;;19.80;14.40;;;;;;;6.97;87.77;101127.88;109501;1246;69342;-72
2023/04/07 09:39:28;;;;;;;20.30;14.80;;;;;;;6.96;86.07;101126.68;109301;1247;74097;-71
2023/04/07 09:41:57;;;;;;;23.70;16.90;;;;;;;6.98;86.65;101125.92;109338;1248;58236;-71
2023/04/07 09:44:26;;;;;;;20.60;15.70;;;;;;;7.03;87.37;101125.15;109257;1246;60227;-74
2023/04/07 09:46:58;;;;;;;19.90;15.30;;;;;;;7.15;87.06;101124.86;109366;1247;74806;-70
2023/04/07 09:49:27;;;;;;;21.60;16.00;;;;;;;7.02;86.78;101119.65;109398;1247;72255;-72
2023/04/07 09:52:06;;;;;;;19.30;14.80;;;;;;;7.47;86.53;101116.94;109451;1246;70860;-72
2023/04/07 09:54:41;;;;;;;19.40;14.70;;;;;;;7.61;83.71;101118.13;109621;1247;62494;-71
2023/04/07 09:57:12;;;;;;;21.00;16.40;;;;;;;7.83;84.39;101121.45;109520;1251;58349;-71
2023/04/07 09:59:43;;;;;;;22.00;17.10;;;;;;;7.73;86.17;101122.69;109410;1248;57668;-72
2023/04/07 10:02:12;;;;;;;20.90;15.80;;;;;;;8.02;84.80;101124.93;109377;1249;74353;-73
2023/04/07 10:04:42;;;;;;;24.00;16.40;;;;;;;8.02;84.06;101127.83;109391;1248;61416;-72
2023/04/07 10:07:12;;;;;;;20.30;14.60;;;;;;;7.74;83.82;101129.20;109473;1248;60009;-73
2023/04/07 10:09:40;;;;;;;18.50;14.60;;;;;;;7.71;83.99;101129.03;109495;1244;73231;-72
2023/04/07 10:12:10;;;;;;;19.90;14.30;;;;;;;8.06;83.21;101127.31;109405;1246;63344;-72
2023/04/07 10:14:39;;;;;;;22.00;15.30;;;;;;;8.14;82.51;101133.77;109313;1246;60976;-73
2023/04/07 10:17:08;;;;;;;22.10;14.40;;;;;;;8.03;82.98;101133.87;109468;1244;66122;-73
2023/04/07 10:19:37;;;;;;;26.90;15.20;;;;;;;8.40;86.30;101137.05;109340;1246;71283;-72
2023/04/07 10:22:06;;;;;;;33.10;16.20;;;;;;;8.29;82.34;101139.55;109265;1246;70358;-71
2023/04/07 10:24:45;;;;;;;27.10;16.00;;;;;;;8.59;82.03;101136.64;109492;1245;71759;-72
2023/04/07 10:27:21;;;;;;;36.40;20.70;;;;;;;8.71;82.44;101140.67;109411;1248;58321;-73
2023/04/07 10:29:51;;;;;;;30.80;18.60;;;;;;;9.15;79.71;101139.13;109440;1244;59560;-73
2023/04/07 10:32:20;;;;;;;34.30;19.00;;;;;;;9.12;81.56;101140.15;109184;1251;63863;-73
2023/04/07 10:34:49;;;;;;;39.70;19.90;;;;;;;9.20;79.06;101139.55;109413;1247;69477;-74
2023/04/07 10:37:22;;;;;;;36.90;19.30;;;;;;;9.56;81.37;101139.46;109420;1245;68581;-72
2023/04/07 10:40:17;;;;;;;34.40;18.40;;;;;;;9.51;79.99;101143.93;109316;1247;63411;-71
2023/04/07 10:42:46;;;;;;;34.70;18.40;;;;;;;9.24;80.89;101141.51;109338;1248;62546;-71
2023/04/07 10:45:16;;;;;;;28.80;17.40;;;;;;;9.65;78.58;101135.61;109362;1249;58243;-72
2023/04/07 10:48:10;;;;;;;30.00;17.20;;;;;;;9.79;77.73;101136.42;109409;1246;73609;-71
2023/04/07 10:50:39;;;;;;;32.00;18.00;;;;;;;9.62;81.19;101136.25;109210;1248;72738;-71
2023/04/07 10:53:13;;;;;;;33.50;18.30;;;;;;;9.76;78.86;101133.00;109245;1244;70896;-71
2023/04/07 10:55:53;;;;;;;33.60;17.60;;;;;;;9.50;79.37;101130.04;109467;1244;73424;-73
2023/04/07 10:58:30;;;;;;;30.20;17.60;;;;;;;9.54;79.05;101131.02;109388;1251;57734;-73
2023/04/07 11:01:02;;;;;;;27.10;15.10;;;;;;;9.45;80.52;101128.11;109391;1247;57883;-74
2023/04/07 11:03:38;;;;;;;29.40;16.70;;;;;;;9.11;81.61;101129.48;109564;1247;74273;-74
2023/04/07 11:06:10;;;;;;;27.90;16.90;;;;;;;9.33;82.45;101122.90;109621;1244;71733;-74
2023/04/07 11:08:44;;;;;;;28.70;16.30;;;;;;;9.17;81.33;101125.77;109163;1248;70900;-74
2023/04/07 11:11:41;;;;;;;31.10;18.30;;;;;;;9.46;81.89;101123.84;109205;1251;75161;-73
2023/04/07 11:14:09;;;;;;;24.90;15.60;;;;;;;9.44;80.57;101126.41;109177;1248;62899;-74
2023/04/07 11:16:44;;;;;;;26.60;15.00;;;;;;;9.47;79.97;101120.69;109406;1249;57829;-72
2023/04/07 11:19:13;;;;;;;34.90;19.20;;;;;;;9.67;80.87;101118.05;109482;1247;71580;-73
2023/04/07 11:21:42;;;;;;;27.50;18.50;;;;;;;10.24;81.58;101116.86;109579;1247;71476;-71
2023/04/07 11:24:32;;;;;;;27.80;17.00;;;;;;;10.34;78.38;101112.41;109469;1247;70427;-74